sensor_id;sensor_type;location;lat;lon;timestamp;P1;durP1;ratioP1;P2;durP2;ratioP2
78612;SDS011;67933;51.060;3.638;2023-08-08T00:01:57;9.40;;;3.47;;
78612;SDS011;67933;51.060;3.638;2023-08-08T00:04:23;7.82;;;3.47;;
78612;SDS011;67933;51.060;3.638;2023-08-08T00:06:48;9.85;;;3.60;;
78612;SDS011;67933;51.060;3.638;2023-08-08T00:09:13;10.02;;;3.40;;
78612;SDS011;67933;51.060;3.638;2023-08-08T00:11:39;15.10;;;4.95;;
78612;SDS011;67933;51.060;3.638;2023-08-08T00:14:04;7.55;;;3.55;;
78612;SDS011;67933;51.060;3.638;2023-08-08T00:16:30;10.90;;;4.03;;
78612;SDS011;67933;51.060;3.638;2023-08-08T00:18:55;10.90;;;3.50;;
78612;SDS011;67933;51.060;3.638;2023-08-08T00:21:21;12.07;;;3.97;;
78612;SDS011;67933;51.060;3.638;2023-08-08T00:23:46;9.63;;;3.63;;
78612;SDS011;67933;51.060;3.638;2023-08-08T00:26:12;10.90;;;3.75;;
78612;SDS011;67933;51.060;3.638;2023-08-08T00:28:37;12.55;;;3.63;;
78612;SDS011;67933;51.060;3.638;2023-08-08T00:31:03;8.15;;;3.67;;
78612;SDS011;67933;51.060;3.638;2023-08-08T00:33:28;12.45;;;3.83;;
78612;SDS011;67933;51.060;3.638;2023-08-08T00:35:53;8.88;;;3.80;;
78612;SDS011;67933;51.060;3.638;2023-08-08T00:38:19;8.50;;;3.70;;
78612;SDS011;67933;51.060;3.638;2023-08-08T00:40:44;11.57;;;4.47;;
78612;SDS011;67933;51.060;3.638;2023-08-08T00:43:10;11.63;;;3.83;;
78612;SDS011;67933;51.060;3.638;2023-08-08T00:45:36;10.05;;;3.83;;
78612;SDS011;67933;51.060;3.638;2023-08-08T00:48:02;8.50;;;3.60;;
78612;SDS011;67933;51.060;3.638;2023-08-08T00:50:29;8.85;;;3.78;;
78612;SDS011;67933;51.060;3.638;2023-08-08T00:52:54;10.77;;;4.43;;
78612;SDS011;67933;51.060;3.638;2023-08-08T00:55:20;10.40;;;4.00;;
78612;SDS011;67933;51.060;3.638;2023-08-08T00:57:46;7.85;;;4.00;;
78612;SDS011;67933;51.060;3.638;2023-08-08T01:00:12;9.45;;;3.83;;
78612;SDS011;67933;51.060;3.638;2023-08-08T01:02:37;10.80;;;3.85;;
78612;SDS011;67933;51.060;3.638;2023-08-08T01:05:03;11.05;;;4.47;;
78612;SDS011;67933;51.060;3.638;2023-08-08T01:10:28;12.50;;;4.50;;
78612;SDS011;67933;51.060;3.638;2023-08-08T01:12:59;12.25;;;4.47;;
78612;SDS011;67933;51.060;3.638;2023-08-08T01:15:28;8.68;;;4.13;;
78612;SDS011;67933;51.060;3.638;2023-08-08T01:18:00;13.95;;;5.15;;
78612;SDS011;67933;51.060;3.638;2023-08-08T01:20:26;15.68;;;4.47;;
78612;SDS011;67933;51.060;3.638;2023-08-08T01:25:20;14.52;;;4.53;;
78612;SDS011;67933;51.060;3.638;2023-08-08T01:27:46;10.70;;;4.38;;
78612;SDS011;67933;51.060;3.638;2023-08-08T01:30:12;10.68;;;4.00;;
78612;SDS011;67933;51.060;3.638;2023-08-08T01:32:37;10.75;;;4.72;;
78612;SDS011;67933;51.060;3.638;2023-08-08T01:35:03;13.43;;;4.35;;
78612;SDS011;67933;51.060;3.638;2023-08-08T01:37:29;15.23;;;4.97;;
78612;SDS011;67933;51.060;3.638;2023-08-08T01:39:58;18.50;;;5.25;;
78612;SDS011;67933;51.060;3.638;2023-08-08T01:42:25;10.90;;;4.22;;
78612;SDS011;67933;51.060;3.638;2023-08-08T01:44:52;11.18;;;4.40;;
78612;SDS011;67933;51.060;3.638;2023-08-08T01:47:19;18.25;;;5.13;;
78612;SDS011;67933;51.060;3.638;2023-08-08T01:49:44;15.23;;;5.10;;
78612;SDS011;67933;51.060;3.638;2023-08-08T01:52:10;15.55;;;5.57;;
78612;SDS011;67933;51.060;3.638;2023-08-08T01:54:35;13.95;;;5.05;;
78612;SDS011;67933;51.060;3.638;2023-08-08T01:57:01;15.82;;;5.28;;
78612;SDS011;67933;51.060;3.638;2023-08-08T01:59:26;14.65;;;5.28;;
78612;SDS011;67933;51.060;3.638;2023-08-08T02:01:51;17.08;;;4.78;;
78612;SDS011;67933;51.060;3.638;2023-08-08T02:04:17;14.70;;;4.78;;
78612;SDS011;67933;51.060;3.638;2023-08-08T02:06:42;13.85;;;4.75;;
78612;SDS011;67933;51.060;3.638;2023-08-08T02:09:08;15.07;;;5.72;;
78612;SDS011;67933;51.060;3.638;2023-08-08T02:11:33;15.50;;;6.55;;
78612;SDS011;67933;51.060;3.638;2023-08-08T02:13:58;25.90;;;9.82;;
78612;SDS011;67933;51.060;3.638;2023-08-08T02:16:24;25.88;;;12.38;;
78612;SDS011;67933;51.060;3.638;2023-08-08T02:18:49;24.88;;;13.52;;
78612;SDS011;67933;51.060;3.638;2023-08-08T02:21:15;25.65;;;15.20;;
78612;SDS011;67933;51.060;3.638;2023-08-08T02:23:40;22.55;;;13.85;;
78612;SDS011;67933;51.060;3.638;2023-08-08T02:26:06;28.02;;;14.00;;
78612;SDS011;67933;51.060;3.638;2023-08-08T02:28:31;31.55;;;17.92;;
78612;SDS011;67933;51.060;3.638;2023-08-08T02:30:56;34.58;;;19.92;;
78612;SDS011;67933;51.060;3.638;2023-08-08T02:33:22;35.22;;;20.98;;
78612;SDS011;67933;51.060;3.638;2023-08-08T02:35:47;32.03;;;17.60;;
78612;SDS011;67933;51.060;3.638;2023-08-08T02:38:12;22.05;;;11.85;;
78612;SDS011;67933;51.060;3.638;2023-08-08T02:40:38;21.77;;;10.50;;
78612;SDS011;67933;51.060;3.638;2023-08-08T02:43:06;19.85;;;9.38;;
78612;SDS011;67933;51.060;3.638;2023-08-08T02:45:31;24.05;;;9.00;;
78612;SDS011;67933;51.060;3.638;2023-08-08T02:47:57;25.42;;;9.23;;
78612;SDS011;67933;51.060;3.638;2023-08-08T02:50:22;19.65;;;8.57;;
78612;SDS011;67933;51.060;3.638;2023-08-08T02:52:48;20.20;;;9.70;;
78612;SDS011;67933;51.060;3.638;2023-08-08T02:55:13;14.55;;;7.95;;
78612;SDS011;67933;51.060;3.638;2023-08-08T02:57:39;18.58;;;8.45;;
78612;SDS011;67933;51.060;3.638;2023-08-08T03:00:05;17.77;;;7.15;;
78612;SDS011;67933;51.060;3.638;2023-08-08T03:02:33;22.42;;;7.47;;
78612;SDS011;67933;51.060;3.638;2023-08-08T03:04:59;22.95;;;7.00;;
78612;SDS011;67933;51.060;3.638;2023-08-08T03:07:24;18.13;;;6.25;;
78612;SDS011;67933;51.060;3.638;2023-08-08T03:09:49;14.85;;;6.10;;
78612;SDS011;67933;51.060;3.638;2023-08-08T03:12:15;16.15;;;6.80;;
78612;SDS011;67933;51.060;3.638;2023-08-08T03:14:40;22.00;;;6.65;;
78612;SDS011;67933;51.060;3.638;2023-08-08T03:17:06;15.40;;;5.45;;
78612;SDS011;67933;51.060;3.638;2023-08-08T03:19:31;21.02;;;6.57;;
78612;SDS011;67933;51.060;3.638;2023-08-08T03:21:57;17.88;;;6.65;;
78612;SDS011;67933;51.060;3.638;2023-08-08T03:24:22;17.02;;;6.55;;
78612;SDS011;67933;51.060;3.638;2023-08-08T03:26:47;17.45;;;6.15;;
78612;SDS011;67933;51.060;3.638;2023-08-08T03:29:13;17.58;;;7.32;;
78612;SDS011;67933;51.060;3.638;2023-08-08T03:31:38;13.52;;;6.03;;
78612;SDS011;67933;51.060;3.638;2023-08-08T03:34:04;17.13;;;6.15;;
78612;SDS011;67933;51.060;3.638;2023-08-08T03:36:29;17.90;;;6.15;;
78612;SDS011;67933;51.060;3.638;2023-08-08T03:38:55;20.40;;;6.65;;
78612;SDS011;67933;51.060;3.638;2023-08-08T03:41:20;23.25;;;7.00;;
78612;SDS011;67933;51.060;3.638;2023-08-08T03:43:46;16.92;;;7.00;;
78612;SDS011;67933;51.060;3.638;2023-08-08T03:46:11;17.95;;;7.57;;
78612;SDS011;67933;51.060;3.638;2023-08-08T03:48:37;19.08;;;7.57;;
78612;SDS011;67933;51.060;3.638;2023-08-08T03:51:03;20.77;;;7.32;;
78612;SDS011;67933;51.060;3.638;2023-08-08T03:53:28;17.85;;;6.93;;
78612;SDS011;67933;51.060;3.638;2023-08-08T03:55:54;14.45;;;7.05;;
78612;SDS011;67933;51.060;3.638;2023-08-08T03:58:19;21.65;;;7.07;;
78612;SDS011;67933;51.060;3.638;2023-08-08T04:00:45;13.65;;;5.93;;
78612;SDS011;67933;51.060;3.638;2023-08-08T04:03:14;16.63;;;6.32;;
78612;SDS011;67933;51.060;3.638;2023-08-08T04:05:40;21.17;;;6.53;;
78612;SDS011;67933;51.060;3.638;2023-08-08T04:08:10;17.08;;;5.90;;
78612;SDS011;67933;51.060;3.638;2023-08-08T04:10:36;14.30;;;5.95;;
78612;SDS011;67933;51.060;3.638;2023-08-08T04:13:01;18.77;;;6.32;;
78612;SDS011;67933;51.060;3.638;2023-08-08T04:15:26;18.33;;;6.88;;
78612;SDS011;67933;51.060;3.638;2023-08-08T04:17:52;15.45;;;6.63;;
78612;SDS011;67933;51.060;3.638;2023-08-08T04:20:17;20.67;;;7.25;;
78612;SDS011;67933;51.060;3.638;2023-08-08T04:22:43;15.30;;;6.78;;
78612;SDS011;67933;51.060;3.638;2023-08-08T04:25:08;17.70;;;6.95;;
78612;SDS011;67933;51.060;3.638;2023-08-08T04:27:33;16.88;;;6.68;;
78612;SDS011;67933;51.060;3.638;2023-08-08T04:29:59;14.65;;;6.25;;
78612;SDS011;67933;51.060;3.638;2023-08-08T04:32:24;18.20;;;6.95;;
78612;SDS011;67933;51.060;3.638;2023-08-08T04:34:50;17.27;;;7.65;;
78612;SDS011;67933;51.060;3.638;2023-08-08T04:37:15;22.33;;;6.82;;
78612;SDS011;67933;51.060;3.638;2023-08-08T04:39:40;19.30;;;7.07;;
78612;SDS011;67933;51.060;3.638;2023-08-08T04:42:06;18.45;;;6.50;;
78612;SDS011;67933;51.060;3.638;2023-08-08T04:44:31;17.38;;;7.35;;
78612;SDS011;67933;51.060;3.638;2023-08-08T04:46:57;20.17;;;6.60;;
78612;SDS011;67933;51.060;3.638;2023-08-08T04:49:22;15.55;;;6.72;;
78612;SDS011;67933;51.060;3.638;2023-08-08T04:51:48;18.55;;;6.40;;
78612;SDS011;67933;51.060;3.638;2023-08-08T04:54:15;16.15;;;6.70;;
78612;SDS011;67933;51.060;3.638;2023-08-08T04:56:40;18.42;;;6.93;;
78612;SDS011;67933;51.060;3.638;2023-08-08T04:59:05;21.30;;;7.30;;
78612;SDS011;67933;51.060;3.638;2023-08-08T05:01:31;13.20;;;5.97;;
78612;SDS011;67933;51.060;3.638;2023-08-08T05:03:56;18.23;;;5.97;;
78612;SDS011;67933;51.060;3.638;2023-08-08T05:06:21;17.98;;;6.22;;
78612;SDS011;67933;51.060;3.638;2023-08-08T05:08:48;16.92;;;6.43;;
78612;SDS011;67933;51.060;3.638;2023-08-08T05:13:40;17.27;;;5.90;;
78612;SDS011;67933;51.060;3.638;2023-08-08T05:16:05;18.27;;;5.63;;
78612;SDS011;67933;51.060;3.638;2023-08-08T05:18:31;17.33;;;6.60;;
78612;SDS011;67933;51.060;3.638;2023-08-08T05:20:56;25.60;;;6.90;;
78612;SDS011;67933;51.060;3.638;2023-08-08T05:23:22;16.60;;;5.32;;
78612;SDS011;67933;51.060;3.638;2023-08-08T05:25:47;16.13;;;5.70;;
78612;SDS011;67933;51.060;3.638;2023-08-08T05:28:12;14.38;;;5.03;;
78612;SDS011;67933;51.060;3.638;2023-08-08T05:30:38;11.85;;;5.32;;
78612;SDS011;67933;51.060;3.638;2023-08-08T05:33:04;19.73;;;6.28;;
78612;SDS011;67933;51.060;3.638;2023-08-08T05:35:30;14.75;;;5.68;;
78612;SDS011;67933;51.060;3.638;2023-08-08T05:37:55;14.88;;;5.57;;
78612;SDS011;67933;51.060;3.638;2023-08-08T05:40:20;18.17;;;6.18;;
78612;SDS011;67933;51.060;3.638;2023-08-08T05:42:46;24.95;;;6.32;;
78612;SDS011;67933;51.060;3.638;2023-08-08T05:45:12;17.17;;;6.30;;
78612;SDS011;67933;51.060;3.638;2023-08-08T05:47:37;15.68;;;6.00;;
78612;SDS011;67933;51.060;3.638;2023-08-08T05:50:03;13.32;;;5.60;;
78612;SDS011;67933;51.060;3.638;2023-08-08T05:52:28;18.85;;;6.18;;
78612;SDS011;67933;51.060;3.638;2023-08-08T05:54:54;17.63;;;6.10;;
78612;SDS011;67933;51.060;3.638;2023-08-08T05:57:19;14.02;;;6.20;;
78612;SDS011;67933;51.060;3.638;2023-08-08T05:59:46;18.83;;;5.57;;
78612;SDS011;67933;51.060;3.638;2023-08-08T06:02:12;15.27;;;5.70;;
78612;SDS011;67933;51.060;3.638;2023-08-08T06:04:37;16.63;;;6.03;;
78612;SDS011;67933;51.060;3.638;2023-08-08T06:07:03;13.70;;;5.40;;
78612;SDS011;67933;51.060;3.638;2023-08-08T06:09:28;15.52;;;5.70;;
78612;SDS011;67933;51.060;3.638;2023-08-08T06:11:54;15.25;;;6.03;;
78612;SDS011;67933;51.060;3.638;2023-08-08T06:14:19;11.38;;;5.45;;
78612;SDS011;67933;51.060;3.638;2023-08-08T06:16:45;13.27;;;5.82;;
78612;SDS011;67933;51.060;3.638;2023-08-08T06:19:11;15.05;;;5.03;;
78612;SDS011;67933;51.060;3.638;2023-08-08T06:21:38;13.20;;;5.20;;
78612;SDS011;67933;51.060;3.638;2023-08-08T06:24:04;11.57;;;4.88;;
78612;SDS011;67933;51.060;3.638;2023-08-08T06:26:29;11.45;;;4.72;;
78612;SDS011;67933;51.060;3.638;2023-08-08T06:28:55;9.55;;;4.15;;
78612;SDS011;67933;51.060;3.638;2023-08-08T06:31:20;10.07;;;4.38;;
78612;SDS011;67933;51.060;3.638;2023-08-08T06:33:47;13.13;;;4.35;;
78612;SDS011;67933;51.060;3.638;2023-08-08T06:36:12;10.75;;;4.72;;
78612;SDS011;67933;51.060;3.638;2023-08-08T06:38:38;9.68;;;4.70;;
78612;SDS011;67933;51.060;3.638;2023-08-08T06:41:03;9.30;;;4.13;;
78612;SDS011;67933;51.060;3.638;2023-08-08T06:43:30;10.30;;;4.47;;
78612;SDS011;67933;51.060;3.638;2023-08-08T06:45:55;9.20;;;4.18;;
78612;SDS011;67933;51.060;3.638;2023-08-08T06:48:21;9.57;;;3.70;;
78612;SDS011;67933;51.060;3.638;2023-08-08T06:50:46;10.82;;;4.20;;
78612;SDS011;67933;51.060;3.638;2023-08-08T06:53:12;10.25;;;4.63;;
78612;SDS011;67933;51.060;3.638;2023-08-08T06:55:37;9.88;;;4.03;;
78612;SDS011;67933;51.060;3.638;2023-08-08T06:58:03;8.52;;;3.53;;
78612;SDS011;67933;51.060;3.638;2023-08-08T07:00:28;10.63;;;3.75;;
78612;SDS011;67933;51.060;3.638;2023-08-08T07:02:54;10.25;;;3.88;;
78612;SDS011;67933;51.060;3.638;2023-08-08T07:05:20;8.18;;;3.95;;
78612;SDS011;67933;51.060;3.638;2023-08-08T07:07:47;6.80;;;4.03;;
78612;SDS011;67933;51.060;3.638;2023-08-08T07:10:13;9.82;;;3.58;;
78612;SDS011;67933;51.060;3.638;2023-08-08T07:12:38;6.95;;;3.50;;
78612;SDS011;67933;51.060;3.638;2023-08-08T07:15:05;6.85;;;3.30;;
78612;SDS011;67933;51.060;3.638;2023-08-08T07:17:32;9.77;;;4.00;;
78612;SDS011;67933;51.060;3.638;2023-08-08T07:19:57;7.18;;;3.40;;
78612;SDS011;67933;51.060;3.638;2023-08-08T07:22:23;6.10;;;3.45;;
78612;SDS011;67933;51.060;3.638;2023-08-08T07:24:48;7.63;;;3.80;;
78612;SDS011;67933;51.060;3.638;2023-08-08T07:27:13;10.02;;;4.18;;
78612;SDS011;67933;51.060;3.638;2023-08-08T07:29:39;11.32;;;4.25;;
78612;SDS011;67933;51.060;3.638;2023-08-08T07:32:05;7.07;;;3.80;;
78612;SDS011;67933;51.060;3.638;2023-08-08T07:34:31;7.47;;;3.50;;
78612;SDS011;67933;51.060;3.638;2023-08-08T07:36:57;9.75;;;3.85;;
78612;SDS011;67933;51.060;3.638;2023-08-08T07:39:23;8.40;;;3.70;;
78612;SDS011;67933;51.060;3.638;2023-08-08T07:41:48;9.60;;;4.00;;
78612;SDS011;67933;51.060;3.638;2023-08-08T07:44:13;11.05;;;3.45;;
78612;SDS011;67933;51.060;3.638;2023-08-08T07:46:39;12.43;;;3.72;;
78612;SDS011;67933;51.060;3.638;2023-08-08T07:49:04;8.73;;;3.60;;
78612;SDS011;67933;51.060;3.638;2023-08-08T07:51:31;5.03;;;3.47;;
78612;SDS011;67933;51.060;3.638;2023-08-08T07:53:58;10.35;;;3.85;;
78612;SDS011;67933;51.060;3.638;2023-08-08T07:56:24;5.32;;;3.33;;
78612;SDS011;67933;51.060;3.638;2023-08-08T07:58:49;5.18;;;3.38;;
78612;SDS011;67933;51.060;3.638;2023-08-08T08:01:15;10.20;;;3.85;;
78612;SDS011;67933;51.060;3.638;2023-08-08T08:03:40;8.18;;;3.88;;
78612;SDS011;67933;51.060;3.638;2023-08-08T08:06:06;8.55;;;3.80;;
78612;SDS011;67933;51.060;3.638;2023-08-08T08:08:32;11.35;;;4.18;;
78612;SDS011;67933;51.060;3.638;2023-08-08T08:10:57;8.77;;;3.78;;
78612;SDS011;67933;51.060;3.638;2023-08-08T08:13:23;7.90;;;3.75;;
78612;SDS011;67933;51.060;3.638;2023-08-08T08:15:48;7.55;;;3.88;;
78612;SDS011;67933;51.060;3.638;2023-08-08T08:18:14;7.03;;;3.00;;
78612;SDS011;67933;51.060;3.638;2023-08-08T08:20:42;8.60;;;3.55;;
78612;SDS011;67933;51.060;3.638;2023-08-08T08:23:08;9.95;;;3.40;;
78612;SDS011;67933;51.060;3.638;2023-08-08T08:25:34;5.43;;;3.25;;
78612;SDS011;67933;51.060;3.638;2023-08-08T08:28:00;8.65;;;3.60;;
78612;SDS011;67933;51.060;3.638;2023-08-08T08:30:25;6.22;;;3.03;;
78612;SDS011;67933;51.060;3.638;2023-08-08T08:32:51;8.57;;;3.92;;
78612;SDS011;67933;51.060;3.638;2023-08-08T08:35:17;6.22;;;3.60;;
78612;SDS011;67933;51.060;3.638;2023-08-08T08:37:42;8.57;;;3.33;;
78612;SDS011;67933;51.060;3.638;2023-08-08T08:40:08;6.05;;;3.50;;
78612;SDS011;67933;51.060;3.638;2023-08-08T08:42:35;7.63;;;3.53;;
78612;SDS011;67933;51.060;3.638;2023-08-08T08:45:01;7.85;;;3.83;;
78612;SDS011;67933;51.060;3.638;2023-08-08T08:47:28;6.22;;;2.63;;
78612;SDS011;67933;51.060;3.638;2023-08-08T08:49:55;6.18;;;2.80;;
78612;SDS011;67933;51.060;3.638;2023-08-08T08:52:22;6.90;;;2.85;;
78612;SDS011;67933;51.060;3.638;2023-08-08T08:54:48;5.22;;;2.75;;
78612;SDS011;67933;51.060;3.638;2023-08-08T08:57:14;5.55;;;2.72;;
78612;SDS011;67933;51.060;3.638;2023-08-08T08:59:40;9.90;;;2.78;;
78612;SDS011;67933;51.060;3.638;2023-08-08T09:02:05;5.60;;;2.60;;
78612;SDS011;67933;51.060;3.638;2023-08-08T09:04:31;5.90;;;2.50;;
78612;SDS011;67933;51.060;3.638;2023-08-08T09:06:59;4.80;;;2.28;;
78612;SDS011;67933;51.060;3.638;2023-08-08T09:09:25;3.53;;;1.90;;
78612;SDS011;67933;51.060;3.638;2023-08-08T09:11:52;3.95;;;1.98;;
78612;SDS011;67933;51.060;3.638;2023-08-08T09:14:21;4.13;;;2.08;;
78612;SDS011;67933;51.060;3.638;2023-08-08T09:16:48;5.38;;;1.90;;
78612;SDS011;67933;51.060;3.638;2023-08-08T09:19:15;2.95;;;1.77;;
78612;SDS011;67933;51.060;3.638;2023-08-08T09:21:43;4.38;;;2.10;;
78612;SDS011;67933;51.060;3.638;2023-08-08T09:24:08;3.90;;;1.73;;
78612;SDS011;67933;51.060;3.638;2023-08-08T09:26:34;5.60;;;2.30;;
78612;SDS011;67933;51.060;3.638;2023-08-08T09:29:02;4.00;;;1.83;;
78612;SDS011;67933;51.060;3.638;2023-08-08T09:31:28;3.88;;;1.45;;
78612;SDS011;67933;51.060;3.638;2023-08-08T09:33:54;3.50;;;1.73;;
78612;SDS011;67933;51.060;3.638;2023-08-08T09:36:21;2.88;;;1.70;;
78612;SDS011;67933;51.060;3.638;2023-08-08T09:38:47;3.03;;;1.95;;
78612;SDS011;67933;51.060;3.638;2023-08-08T09:41:13;3.97;;;1.60;;
78612;SDS011;67933;51.060;3.638;2023-08-08T09:43:39;3.58;;;1.65;;
78612;SDS011;67933;51.060;3.638;2023-08-08T09:46:04;3.40;;;2.00;;
78612;SDS011;67933;51.060;3.638;2023-08-08T09:48:30;2.85;;;1.48;;
78612;SDS011;67933;51.060;3.638;2023-08-08T09:51:01;3.55;;;1.50;;
78612;SDS011;67933;51.060;3.638;2023-08-08T09:53:27;3.78;;;1.48;;
78612;SDS011;67933;51.060;3.638;2023-08-08T09:55:54;5.93;;;1.50;;
78612;SDS011;67933;51.060;3.638;2023-08-08T09:58:20;5.85;;;2.10;;
78612;SDS011;67933;51.060;3.638;2023-08-08T10:00:48;2.70;;;1.52;;
78612;SDS011;67933;51.060;3.638;2023-08-08T10:03:15;3.88;;;1.52;;
78612;SDS011;67933;51.060;3.638;2023-08-08T10:05:42;3.10;;;1.55;;
78612;SDS011;67933;51.060;3.638;2023-08-08T10:08:07;4.45;;;1.92;;
78612;SDS011;67933;51.060;3.638;2023-08-08T10:10:33;4.05;;;1.92;;
78612;SDS011;67933;51.060;3.638;2023-08-08T10:13:00;4.25;;;1.92;;
78612;SDS011;67933;51.060;3.638;2023-08-08T10:15:26;5.80;;;1.88;;
78612;SDS011;67933;51.060;3.638;2023-08-08T10:17:55;2.47;;;1.52;;
78612;SDS011;67933;51.060;3.638;2023-08-08T10:20:23;3.65;;;1.63;;
78612;SDS011;67933;51.060;3.638;2023-08-08T10:22:50;2.83;;;1.50;;
78612;SDS011;67933;51.060;3.638;2023-08-08T10:25:24;4.45;;;1.85;;
78612;SDS011;67933;51.060;3.638;2023-08-08T10:28:04;3.95;;;2.00;;
78612;SDS011;67933;51.060;3.638;2023-08-08T10:30:56;4.57;;;2.00;;
78612;SDS011;67933;51.060;3.638;2023-08-08T10:33:25;3.20;;;1.70;;
78612;SDS011;67933;51.060;3.638;2023-08-08T10:38:48;5.30;;;1.77;;
78612;SDS011;67933;51.060;3.638;2023-08-08T10:41:18;3.33;;;1.80;;
78612;SDS011;67933;51.060;3.638;2023-08-08T10:43:51;3.92;;;1.73;;
78612;SDS011;67933;51.060;3.638;2023-08-08T10:46:25;3.42;;;1.92;;
78612;SDS011;67933;51.060;3.638;2023-08-08T10:48:52;2.85;;;1.63;;
78612;SDS011;67933;51.060;3.638;2023-08-08T10:51:19;2.80;;;1.88;;
78612;SDS011;67933;51.060;3.638;2023-08-08T10:53:45;2.63;;;1.48;;
78612;SDS011;67933;51.060;3.638;2023-08-08T10:56:12;2.17;;;1.90;;
78612;SDS011;67933;51.060;3.638;2023-08-08T10:58:39;4.93;;;1.80;;
78612;SDS011;67933;51.060;3.638;2023-08-08T11:01:07;3.47;;;1.73;;
78612;SDS011;67933;51.060;3.638;2023-08-08T11:03:37;4.78;;;1.88;;
78612;SDS011;67933;51.060;3.638;2023-08-08T11:06:08;3.83;;;1.60;;
78612;SDS011;67933;51.060;3.638;2023-08-08T11:08:34;2.78;;;1.50;;
78612;SDS011;67933;51.060;3.638;2023-08-08T11:11:03;2.55;;;1.73;;
78612;SDS011;67933;51.060;3.638;2023-08-08T11:13:29;5.00;;;1.90;;
78612;SDS011;67933;51.060;3.638;2023-08-08T11:15:54;2.38;;;1.70;;
78612;SDS011;67933;51.060;3.638;2023-08-08T11:18:20;2.60;;;1.50;;
78612;SDS011;67933;51.060;3.638;2023-08-08T11:20:46;4.90;;;1.55;;
78612;SDS011;67933;51.060;3.638;2023-08-08T11:23:12;1.88;;;1.35;;
78612;SDS011;67933;51.060;3.638;2023-08-08T11:25:41;3.55;;;1.50;;
78612;SDS011;67933;51.060;3.638;2023-08-08T11:28:08;2.65;;;1.40;;
78612;SDS011;67933;51.060;3.638;2023-08-08T11:30:37;2.95;;;1.50;;
78612;SDS011;67933;51.060;3.638;2023-08-08T11:33:04;1.83;;;1.48;;
78612;SDS011;67933;51.060;3.638;2023-08-08T11:35:31;1.83;;;1.27;;
78612;SDS011;67933;51.060;3.638;2023-08-08T11:37:57;2.45;;;1.45;;
78612;SDS011;67933;51.060;3.638;2023-08-08T11:40:25;2.95;;;1.50;;
78612;SDS011;67933;51.060;3.638;2023-08-08T11:42:51;4.72;;;1.40;;
78612;SDS011;67933;51.060;3.638;2023-08-08T11:45:18;2.13;;;1.10;;
78612;SDS011;67933;51.060;3.638;2023-08-08T11:47:47;3.10;;;1.00;;
78612;SDS011;67933;51.060;3.638;2023-08-08T11:50:14;3.70;;;1.20;;
78612;SDS011;67933;51.060;3.638;2023-08-08T11:52:40;4.05;;;1.40;;
78612;SDS011;67933;51.060;3.638;2023-08-08T11:55:08;2.35;;;1.20;;
78612;SDS011;67933;51.060;3.638;2023-08-08T11:57:37;2.40;;;1.23;;
78612;SDS011;67933;51.060;3.638;2023-08-08T12:00:06;1.67;;;1.20;;
78612;SDS011;67933;51.060;3.638;2023-08-08T12:02:34;2.35;;;1.20;;
78612;SDS011;67933;51.060;3.638;2023-08-08T12:05:06;1.65;;;1.23;;
78612;SDS011;67933;51.060;3.638;2023-08-08T12:07:34;2.63;;;1.30;;
78612;SDS011;67933;51.060;3.638;2023-08-08T12:10:00;2.63;;;1.33;;
78612;SDS011;67933;51.060;3.638;2023-08-08T12:12:27;4.30;;;0.90;;
78612;SDS011;67933;51.060;3.638;2023-08-08T12:14:56;2.30;;;1.10;;
78612;SDS011;67933;51.060;3.638;2023-08-08T12:17:21;4.55;;;1.23;;
78612;SDS011;67933;51.060;3.638;2023-08-08T12:19:47;2.10;;;1.10;;
78612;SDS011;67933;51.060;3.638;2023-08-08T12:22:13;1.95;;;1.13;;
78612;SDS011;67933;51.060;3.638;2023-08-08T12:24:39;2.65;;;0.93;;
78612;SDS011;67933;51.060;3.638;2023-08-08T12:27:05;2.50;;;1.00;;
78612;SDS011;67933;51.060;3.638;2023-08-08T12:29:30;1.30;;;0.95;;
78612;SDS011;67933;51.060;3.638;2023-08-08T12:31:56;2.05;;;1.23;;
78612;SDS011;67933;51.060;3.638;2023-08-08T12:34:21;2.95;;;1.00;;
78612;SDS011;67933;51.060;3.638;2023-08-08T12:36:47;5.78;;;1.20;;
78612;SDS011;67933;51.060;3.638;2023-08-08T12:39:12;2.33;;;1.00;;
78612;SDS011;67933;51.060;3.638;2023-08-08T12:41:38;3.10;;;1.00;;
78612;SDS011;67933;51.060;3.638;2023-08-08T12:44:04;1.33;;;0.80;;
78612;SDS011;67933;51.060;3.638;2023-08-08T12:46:30;1.75;;;1.00;;
78612;SDS011;67933;51.060;3.638;2023-08-08T12:48:55;3.50;;;1.00;;
78612;SDS011;67933;51.060;3.638;2023-08-08T12:51:21;2.33;;;1.10;;
78612;SDS011;67933;51.060;3.638;2023-08-08T12:53:46;3.50;;;0.98;;
78612;SDS011;67933;51.060;3.638;2023-08-08T12:56:11;2.35;;;1.10;;
78612;SDS011;67933;51.060;3.638;2023-08-08T12:58:37;1.90;;;1.13;;
78612;SDS011;67933;51.060;3.638;2023-08-08T13:01:04;2.20;;;1.10;;
78612;SDS011;67933;51.060;3.638;2023-08-08T13:03:29;2.20;;;1.10;;
78612;SDS011;67933;51.060;3.638;2023-08-08T13:05:55;2.88;;;0.93;;
78612;SDS011;67933;51.060;3.638;2023-08-08T13:08:20;1.60;;;1.30;;
78612;SDS011;67933;51.060;3.638;2023-08-08T13:10:46;1.77;;;0.70;;
78612;SDS011;67933;51.060;3.638;2023-08-08T13:13:11;2.13;;;0.95;;
78612;SDS011;67933;51.060;3.638;2023-08-08T13:15:37;1.38;;;0.80;;
78612;SDS011;67933;51.060;3.638;2023-08-08T13:18:03;2.08;;;0.90;;
78612;SDS011;67933;51.060;3.638;2023-08-08T13:20:28;1.50;;;0.75;;
78612;SDS011;67933;51.060;3.638;2023-08-08T13:22:54;1.85;;;1.00;;
78612;SDS011;67933;51.060;3.638;2023-08-08T13:25:19;1.52;;;0.90;;
78612;SDS011;67933;51.060;3.638;2023-08-08T13:27:45;2.17;;;1.30;;
78612;SDS011;67933;51.060;3.638;2023-08-08T13:32:40;2.20;;;1.10;;
78612;SDS011;67933;51.060;3.638;2023-08-08T13:35:06;2.08;;;1.00;;
78612;SDS011;67933;51.060;3.638;2023-08-08T13:37:31;3.17;;;1.30;;
78612;SDS011;67933;51.060;3.638;2023-08-08T13:39:57;1.73;;;1.00;;
78612;SDS011;67933;51.060;3.638;2023-08-08T13:42:22;2.72;;;0.95;;
78612;SDS011;67933;51.060;3.638;2023-08-08T13:44:48;3.60;;;0.98;;
78612;SDS011;67933;51.060;3.638;2023-08-08T13:47:14;1.15;;;0.85;;
78612;SDS011;67933;51.060;3.638;2023-08-08T13:49:40;1.95;;;0.90;;
78612;SDS011;67933;51.060;3.638;2023-08-08T13:52:05;1.92;;;0.80;;
78612;SDS011;67933;51.060;3.638;2023-08-08T13:54:31;2.00;;;0.77;;
78612;SDS011;67933;51.060;3.638;2023-08-08T13:56:56;3.08;;;1.00;;
78612;SDS011;67933;51.060;3.638;2023-08-08T13:59:22;2.20;;;0.90;;
78612;SDS011;67933;51.060;3.638;2023-08-08T14:01:47;2.35;;;0.70;;
78612;SDS011;67933;51.060;3.638;2023-08-08T14:04:12;2.35;;;0.90;;
78612;SDS011;67933;51.060;3.638;2023-08-08T14:06:38;3.30;;;1.05;;
78612;SDS011;67933;51.060;3.638;2023-08-08T14:09:03;2.15;;;0.90;;
78612;SDS011;67933;51.060;3.638;2023-08-08T14:11:30;2.47;;;1.05;;
78612;SDS011;67933;51.060;3.638;2023-08-08T14:13:55;4.28;;;1.05;;
78612;SDS011;67933;51.060;3.638;2023-08-08T14:16:21;1.63;;;0.95;;
78612;SDS011;67933;51.060;3.638;2023-08-08T14:18:47;2.58;;;1.05;;
78612;SDS011;67933;51.060;3.638;2023-08-08T14:21:13;2.08;;;1.30;;
78612;SDS011;67933;51.060;3.638;2023-08-08T14:23:39;2.45;;;1.05;;
78612;SDS011;67933;51.060;3.638;2023-08-08T14:26:04;3.00;;;1.50;;
78612;SDS011;67933;51.060;3.638;2023-08-08T14:28:30;3.05;;;1.45;;
78612;SDS011;67933;51.060;3.638;2023-08-08T14:30:56;1.77;;;1.20;;
78612;SDS011;67933;51.060;3.638;2023-08-08T14:33:21;3.75;;;1.30;;
78612;SDS011;67933;51.060;3.638;2023-08-08T14:35:47;2.95;;;1.25;;
78612;SDS011;67933;51.060;3.638;2023-08-08T14:38:12;2.53;;;1.13;;
78612;SDS011;67933;51.060;3.638;2023-08-08T14:40:38;2.75;;;1.05;;
78612;SDS011;67933;51.060;3.638;2023-08-08T14:43:03;3.53;;;1.25;;
78612;SDS011;67933;51.060;3.638;2023-08-08T14:45:34;2.45;;;1.80;;
78612;SDS011;67933;51.060;3.638;2023-08-08T14:48:02;2.55;;;1.95;;